Time;durP1;ratioP1;P1;durP2;ratioP2;P2;SDS_P1;SDS_P2;PMS_P1;PMS_P2;Temp;Humidity;BMP_temperature;BMP_pressure;BME280_temperature;BME280_humidity;BME280_pressure;Samples;Min_cycle;Max_cycle;Signal;HPM_P1;HPM_P2
2021/12/17 00:01:00;;;;;;;16.87;8.10;;;;;;;4.55;84.70;99418.20;1742514;81;20989;-58
2021/12/17 00:03:43;;;;;;;14.13;8.48;;;;;;;4.51;83.96;99411.05;1748131;82;21547;-58
2021/12/17 00:06:15;;;;;;;11.38;6.72;;;;;;;4.52;84.47;99411.36;1743883;82;21443;-58
2021/12/17 00:08:36;;;;;;;13.45;7.05;;;;;;;4.52;83.91;99400.63;1739376;82;21052;-58
2021/12/17 00:11:04;;;;;;;15.08;7.60;;;;;;;4.51;83.73;99411.88;1740021;81;20968;-58
2021/12/17 00:13:32;;;;;;;11.73;6.80;;;;;;;4.49;84.16;99402.39;1740386;82;20992;-57
2021/12/17 00:16:00;;;;;;;18.60;7.75;;;;;;;4.45;84.04;99397.14;1731038;81;21056;-58
2021/12/17 00:18:40;;;;;;;13.38;7.97;;;;;;;4.48;84.23;99406.94;1737125;82;21415;-58
2021/12/17 00:40:17;;;;;;;17.35;8.73;;;;;;;4.44;84.17;99416.45;1764595;80;21543;-57
2021/12/17 00:48:36;;;;;;;17.27;8.60;;;;;;;4.44;84.23;99394.13;1764549;80;21310;-57
2021/12/17 00:51:30;;;;;;;16.17;7.62;;;;;;;4.42;83.92;99400.22;1717942;82;21048;-57
2021/12/17 00:53:30;;;;;;;13.10;6.60;;;;;;;4.40;84.33;99409.83;1737190;82;21434;-56
2021/12/17 00:55:57;;;;;;;14.05;8.30;;;;;;;4.39;84.20;99401.98;1740405;82;21021;-57
2021/12/17 00:58:24;;;;;;;21.23;8.60;;;;;;;4.39;84.21;99381.86;1740426;82;21952;-56
2021/12/17 01:00:51;;;;;;;13.93;6.75;;;;;;;4.39;84.32;99388.05;1742166;82;21401;-57
2021/12/17 01:03:18;;;;;;;15.30;7.95;;;;;;;4.40;84.22;99391.03;1753036;81;20988;-57
2021/12/17 01:05:45;;;;;;;12.80;5.58;;;;;;;4.38;84.48;99397.13;1752387;81;20952;-56
2021/12/17 01:08:11;;;;;;;14.75;6.92;;;;;;;4.40;84.26;99403.11;1745375;82;20964;-57
2021/12/17 01:10:44;;;;;;;16.57;7.75;;;;;;;4.37;84.43;99406.73;1739929;82;21358;-57
2021/12/17 01:13:11;;;;;;;15.28;6.78;;;;;;;4.36;84.46;99405.91;1742076;82;21016;-57
2021/12/17 01:15:40;;;;;;;15.58;9.05;;;;;;;4.35;84.74;99403.41;1742817;81;20966;-57
2021/12/17 01:18:12;;;;;;;12.68;6.72;;;;;;;4.35;84.73;99415.48;1747298;81;21023;-57
2021/12/17 01:35:20;;;;;;;18.62;6.97;;;;;;;4.33;84.21;99400.94;1756081;81;20976;-57
2021/12/17 01:36:34;;;;;;;16.75;6.80;;;;;;;4.37;84.01;99386.61;1738126;82;21456;-57
2021/12/17 01:40:02;;;;;;;16.87;6.72;;;;;;;4.39;84.14;99381.86;1739390;81;21315;-57
2021/12/17 01:44:08;;;;;;;15.72;5.87;;;;;;;4.46;84.66;99367.92;1738204;82;21016;-57
2021/12/17 01:46:36;;;;;;;10.93;6.05;;;;;;;4.43;83.64;99359.74;1737972;81;21017;-57
2021/12/17 01:49:25;;;;;;;10.32;5.10;;;;;;;4.47;84.18;99348.09;1738199;82;21271;-56
2021/12/17 02:00:03;;;;;;;18.25;6.55;;;;;;;4.55;83.58;99340.34;1759080;81;20987;-57
2021/12/17 02:02:29;;;;;;;19.57;7.12;;;;;;;4.52;83.33;99353.13;1738333;80;21367;-57
2021/12/17 02:04:56;;;;;;;17.90;6.58;;;;;;;4.54;83.43;99348.92;1737881;82;20950;-57
2021/12/17 02:07:23;;;;;;;14.25;5.90;;;;;;;4.55;83.12;99353.77;1738110;81;21017;-57
2021/12/17 02:19:41;;;;;;;15.60;7.40;;;;;;;4.53;83.36;99352.64;1753342;80;21416;-57
2021/12/17 02:31:34;;;;;;;10.53;4.60;;;;;;;4.45;82.95;99351.52;1738143;82;21009;-57
2021/12/17 02:34:12;;;;;;;14.45;4.72;;;;;;;4.44;82.79;99353.86;1738220;82;21060;-57
2021/12/17 02:36:35;;;;;;;13.43;5.20;;;;;;;4.40;82.93;99345.92;1737017;82;20989;-57
2021/12/17 02:39:50;;;;;;;13.93;5.72;;;;;;;4.43;83.22;99340.95;1738338;82;20994;-57
2021/12/17 02:47:18;;;;;;;15.18;5.60;;;;;;;4.40;83.17;99340.56;1738301;80;20981;-57
2021/12/17 02:49:46;;;;;;;15.15;5.08;;;;;;;4.41;83.22;99337.66;1738023;82;20962;-57
2021/12/17 02:52:13;;;;;;;11.48;5.03;;;;;;;4.45;82.93;99340.25;1755852;79;21003;-57
2021/12/17 02:54:41;;;;;;;16.50;4.28;;;;;;;4.36;82.46;99328.08;1759179;81;21294;-57
2021/12/17 02:57:09;;;;;;;11.78;4.72;;;;;;;4.36;82.61;99339.30;1742136;80;21513;-57
2021/12/17 02:59:37;;;;;;;11.68;4.83;;;;;;;4.36;82.36;99329.42;1738177;82;21464;-57
2021/12/17 03:02:09;;;;;;;11.45;5.20;;;;;;;4.31;82.18;99341.28;1738205;81;21428;-57
2021/12/17 03:04:39;;;;;;;18.80;4.58;;;;;;;4.30;82.34;99336.13;1738096;82;21012;-57
2021/12/17 03:07:09;;;;;;;8.00;4.25;;;;;;;4.26;81.95;99335.70;1738177;82;22184;-57
2021/12/17 03:12:17;;;;;;;11.43;4.60;;;;;;;4.30;82.26;99328.91;1737984;82;20933;-57
2021/12/17 03:14:47;;;;;;;12.68;5.08;;;;;;;4.25;81.60;99331.37;1737495;82;21046;-57
2021/12/17 03:17:15;;;;;;;15.98;4.62;;;;;;;4.30;82.00;99335.61;1737117;82;21454;-57
2021/12/17 03:25:07;;;;;;;9.25;5.55;;;;;;;4.20;81.73;99320.45;1738085;82;20965;-57
2021/12/17 03:27:34;;;;;;;10.85;4.50;;;;;;;4.19;81.85;99314.27;1738052;82;21029;-57
2021/12/17 03:30:02;;;;;;;8.88;4.67;;;;;;;4.16;82.32;99316.00;1738384;82;21160;-56
2021/12/17 03:32:29;;;;;;;14.83;4.78;;;;;;;4.13;82.20;99317.77;1739568;81;22030;-57
2021/12/17 03:34:56;;;;;;;14.80;4.72;;;;;;;4.15;82.52;99309.50;1759113;81;21354;-56
2021/12/17 03:37:22;;;;;;;12.98;4.62;;;;;;;4.14;83.06;99306.00;1739920;81;20984;-57
2021/12/17 03:39:49;;;;;;;13.30;5.25;;;;;;;4.15;83.13;99306.82;1720362;82;21017;-57
2021/12/17 03:42:16;;;;;;;10.65;5.15;;;;;;;4.18;83.14;99295.14;1735598;80;20968;-57
2021/12/17 03:44:43;;;;;;;17.62;4.80;;;;;;;4.23;83.16;99295.88;1738150;82;22034;-57
2021/12/17 03:47:10;;;;;;;15.25;5.95;;;;;;;4.25;82.82;99291.95;1737940;82;21413;-57
2021/12/17 03:49:40;;;;;;;12.93;6.58;;;;;;;4.27;83.05;99286.88;1737946;82;21016;-57
2021/12/17 03:52:06;;;;;;;;;;;;;;;4.29;82.63;99296.40;1743028;82;21390;-57
2021/12/17 03:54:34;;;;;;;11.28;5.55;;;;;;;4.26;82.21;99288.74;1740812;81;20135;-57
2021/12/17 03:57:02;;;;;;;17.57;5.92;;;;;;;4.16;81.01;99299.08;1741048;81;22006;-57
2021/12/17 03:59:29;;;;;;;11.48;7.25;;;;;;;4.17;81.22;99300.20;1740976;81;21382;-57
2021/12/17 04:01:55;;;;;;;22.42;8.38;;;;;;;4.15;81.89;99303.62;1741081;81;20968;-57
2021/12/17 04:04:22;;;;;;;14.68;8.10;;;;;;;4.19;81.96;99307.55;1741011;81;21029;-57
2021/12/17 04:06:49;;;;;;;19.87;8.83;;;;;;;4.16;81.93;99311.15;1741336;81;20985;-56
2021/12/17 04:09:19;;;;;;;66.35;34.73;;;;;;;4.21;82.21;99315.39;1740813;81;21461;-56
2021/12/17 04:11:45;;;;;;;21.40;10.60;;;;;;;4.16;81.73;99313.31;1744566;81;20993;-57
2021/12/17 04:14:13;;;;;;;17.82;6.22;;;;;;;4.13;81.88;99318.28;1751009;81;21030;-57
2021/12/17 04:16:40;;;;;;;21.93;15.25;;;;;;;4.13;82.06;99320.45;1741467;81;21500;-56
2021/12/17 04:19:06;;;;;;;16.32;6.60;;;;;;;4.08;82.35;99316.72;1756665;81;20909;-57
2021/12/17 04:21:33;;;;;;;20.17;12.80;;;;;;;4.04;81.65;99320.34;1751550;81;21402;-57
2021/12/17 04:24:00;;;;;;;14.35;6.78;;;;;;;4.01;81.82;99314.03;1738014;82;21037;-57
2021/12/17 04:26:27;;;;;;;35.33;18.62;;;;;;;4.05;82.02;99319.83;1738114;82;21033;-57
2021/12/17 04:28:54;;;;;;;33.25;24.12;;;;;;;3.91;80.94;99318.98;1738114;82;21429;-57
2021/12/17 04:31:28;;;;;;;15.45;10.43;;;;;;;3.90;81.78;99317.33;1772148;80;20985;-56
2021/12/17 04:33:55;;;;;;;18.62;6.80;;;;;;;3.88;82.35;99317.55;1771393;80;21398;-58
2021/12/17 04:36:27;;;;;;;14.50;5.53;;;;;;;3.90;82.86;99318.16;1744542;81;21280;-58
2021/12/17 04:38:51;;;;;;;14.73;6.35;;;;;;;3.93;82.44;99313.74;1771963;79;21378;-58
2021/12/17 04:44:03;;;;;;;11.22;5.22;;;;;;;3.96;82.19;99328.59;1742478;82;20996;-58
2021/12/17 04:46:28;;;;;;;30.37;10.72;;;;;;;3.89;81.25;99321.88;1739209;82;21387;-58
2021/12/17 04:57:29;;;;;;;12.50;5.83;;;;;;;3.83;81.34;99312.47;1736738;82;20993;-57
2021/12/17 04:59:50;;;;;;;12.18;5.40;;;;;;;3.84;81.83;99309.58;1734922;82;21285;-58
2021/12/17 05:02:18;;;;;;;15.08;5.95;;;;;;;3.82;82.38;99322.89;1739935;82;20961;-57
2021/12/17 05:04:45;;;;;;;17.02;7.05;;;;;;;3.84;82.34;99326.19;1735773;82;21008;-57
2021/12/17 05:07:13;;;;;;;10.72;6.03;;;;;;;3.84;82.08;99318.14;1735652;82;21021;-58
2021/12/17 05:09:50;;;;;;;14.87;5.87;;;;;;;3.85;82.07;99316.63;1735879;82;21036;-57
2021/12/17 05:20:46;;;;;;;11.43;5.20;;;;;;;3.86;83.15;99305.38;1732527;82;21414;-57
2021/12/17 05:23:10;;;;;;;11.90;5.58;;;;;;;3.87;83.31;99301.66;1733097;82;21001;-57
2021/12/17 05:25:37;;;;;;;18.25;8.20;;;;;;;3.86;83.35;99298.67;1742850;82;21298;-57
2021/12/17 05:28:04;;;;;;;13.22;5.80;;;;;;;3.86;83.53;99310.74;1739965;81;20964;-57
2021/12/17 05:30:33;;;;;;;35.85;17.00;;;;;;;3.88;83.53;99317.55;1755451;81;21133;-57
2021/12/17 05:33:01;;;;;;;13.85;7.03;;;;;;;3.90;83.52;99301.24;1751865;80;21338;-57
2021/12/17 05:35:28;;;;;;;15.65;6.22;;;;;;;3.92;83.38;99299.17;1738021;82;21029;-57
2021/12/17 05:37:55;;;;;;;12.03;4.65;;;;;;;3.92;83.46;99311.23;1737929;82;21296;-57
2021/12/17 05:40:21;;;;;;;15.05;6.75;;;;;;;3.92;83.37;99312.58;1737845;82;21004;-57
2021/12/17 05:42:50;;;;;;;21.60;5.85;;;;;;;3.81;83.14;99306.50;1738048;82;20993;-57
2021/12/17 05:45:33;;;;;;;16.87;6.58;;;;;;;3.88;83.20;99300.63;1738022;82;20991;-57
2021/12/17 05:47:49;;;;;;;20.55;7.50;;;;;;;3.82;82.76;99287.52;1735115;82;20998;-57
2021/12/17 05:50:16;;;;;;;17.77;6.95;;;;;;;3.81;82.82;99295.25;1740603;82;21377;-57
2021/12/17 05:52:43;;;;;;;10.88;5.47;;;;;;;3.77;82.91;99303.41;1737847;82;21071;-57
2021/12/17 05:55:10;;;;;;;17.77;8.00;;;;;;;3.85;82.97;99316.63;1737924;82;21017;-57
2021/12/17 05:57:37;;;;;;;18.27;7.90;;;;;;;3.77;82.59;99317.34;1738062;82;21033;-57
2021/12/17 06:00:06;;;;;;;19.42;8.55;;;;;;;3.82;82.96;99315.67;1737974;82;21001;-57
2021/12/17 06:02:33;;;;;;;18.20;9.53;;;;;;;3.77;82.95;99318.67;1736500;81;21755;-57
2021/12/17 06:04:59;;;;;;;13.93;6.15;;;;;;;3.79;83.03;99320.63;1741607;81;21398;-57
2021/12/17 06:07:27;;;;;;;16.10;5.85;;;;;;;3.79;82.78;99301.86;1749761;81;20964;-57
2021/12/17 06:09:57;;;;;;;11.18;6.30;;;;;;;3.75;82.49;99306.79;1749395;81;21006;-57
2021/12/17 06:12:23;;;;;;;17.80;9.43;;;;;;;3.74;82.54;99307.82;1740942;81;20992;-57
2021/12/17 06:14:50;;;;;;;10.80;5.87;;;;;;;3.73;82.61;99309.38;1742403;81;21993;-57
2021/12/17 06:17:17;;;;;;;24.10;10.25;;;;;;;3.74;82.65;99310.50;1749685;81;21478;-57
2021/12/17 06:19:44;;;;;;;24.07;14.65;;;;;;;3.81;82.93;99318.56;1747396;81;21052;-57
2021/12/17 06:22:10;;;;;;;17.23;9.88;;;;;;;3.79;82.59;99325.99;1740174;81;21008;-57
2021/12/17 06:24:37;;;;;;;11.35;7.30;;;;;;;3.76;82.03;99329.92;1746987;81;20977;-57
2021/12/17 06:27:05;;;;;;;21.37;11.55;;;;;;;3.83;82.33;99325.88;1738184;82;21704;-56
2021/12/17 06:29:32;;;;;;;57.35;41.18;;;;;;;3.81;81.28;99332.80;1778246;79;21459;-57
2021/12/17 06:31:59;;;;;;;23.45;18.02;;;;;;;3.78;81.16;99336.41;1777577;80;21517;-57
2021/12/17 06:34:26;;;;;;;18.10;14.78;;;;;;;3.68;81.05;99332.27;1737270;82;20982;-57
2021/12/17 06:36:53;;;;;;;18.60;8.70;;;;;;;3.72;81.38;99343.92;1740489;82;21045;-57
2021/12/17 06:39:19;;;;;;;12.43;8.45;;;;;;;3.63;80.91;99352.66;1740132;82;21394;-57
2021/12/17 06:41:46;;;;;;;15.68;7.97;;;;;;;3.66;80.79;99349.56;1745716;82;20992;-57
2021/12/17 06:44:16;;;;;;;16.57;7.08;;;;;;;3.62;80.48;99344.31;1740209;82;21044;-57
2021/12/17 06:46:57;;;;;;;13.43;7.35;;;;;;;3.61;80.63;99348.02;1740389;82;20953;-57
2021/12/17 06:49:45;;;;;;;30.57;7.35;;;;;;;3.59;80.70;99358.95;1741037;82;20988;-57
2021/12/17 06:55:01;;;;;;;19.17;6.05;;;;;;;3.64;80.93;99361.02;1745250;81;20984;-57
2021/12/17 07:10:43;;;;;;;10.08;6.12;;;;;;;3.52;79.48;99352.74;1730979;82;20981;-57
2021/12/17 07:32:31;;;;;;;14.63;6.20;;;;;;;3.34;80.22;99348.46;1723632;82;21703;-58
2021/12/17 07:35:12;;;;;;;16.80;7.37;;;;;;;3.45;80.40;99351.89;1732405;82;20992;-58
2021/12/17 07:39:40;;;;;;;17.23;7.78;;;;;;;3.37;80.24;99356.91;1730995;81;21056;-57
2021/12/17 07:42:07;;;;;;;14.33;8.98;;;;;;;3.33;80.25;99361.52;1729675;81;21060;-57
2021/12/17 07:44:34;;;;;;;20.90;10.90;;;;;;;3.39;80.39;99362.89;1748050;81;21508;-57
2021/12/17 07:47:01;;;;;;;22.35;9.88;;;;;;;3.40;81.04;99357.02;1736438;80;21391;-57
2021/12/17 07:49:28;;;;;;;15.43;8.43;;;;;;;3.42;81.47;99350.11;1734896;82;21052;-57
2021/12/17 07:51:54;;;;;;;19.32;9.05;;;;;;;3.51;81.45;99351.61;1733358;81;21015;-58
2021/12/17 07:54:21;;;;;;;25.60;9.90;;;;;;;3.50;81.65;99354.78;1736164;82;21119;-58
2021/12/17 07:56:48;;;;;;;19.57;9.58;;;;;;;3.52;81.59;99355.42;1736882;82;21386;-57
2021/12/17 07:59:15;;;;;;;20.52;11.85;;;;;;;3.51;81.50;99358.31;1745267;80;20952;-57
2021/12/17 08:01:42;;;;;;;15.90;7.95;;;;;;;3.56;81.48;99349.95;1735122;82;21513;-57
2021/12/17 08:04:10;;;;;;;18.23;7.83;;;;;;;3.60;81.67;99353.91;1720160;82;21042;-58
2021/12/17 08:06:37;;;;;;;17.25;8.05;;;;;;;3.64;81.77;99352.97;1728914;82;20982;-58
2021/12/17 08:09:04;;;;;;;17.80;7.00;;;;;;;3.71;81.65;99348.97;1735810;82;21025;-57
2021/12/17 08:11:37;;;;;;;14.35;7.80;;;;;;;3.72;81.56;99355.47;1743808;81;21504;-57
2021/12/17 08:14:01;;;;;;;;;;;;;;;3.76;81.47;99355.88;1735162;82;21125;-57
2021/12/17 08:16:37;;;;;;;21.17;10.48;;;;;;;3.79;81.09;99342.08;1740443;81;20294;-58
2021/12/17 08:27:09;;;;;;;24.65;6.55;;;;;;;3.77;81.09;99344.14;1740705;82;21074;-58
2021/12/17 08:31:52;;;;;;;15.63;6.57;;;;;;;3.83;80.67;99351.35;1731282;81;21536;-58
2021/12/17 08:34:19;;;;;;;22.25;10.10;;;;;;;3.73;79.62;99356.29;1735335;82;22229;-57
2021/12/17 08:36:46;;;;;;;20.72;6.95;;;;;;;3.80;80.21;99355.80;1743911;82;21104;-57
2021/12/17 08:39:13;;;;;;;16.07;6.53;;;;;;;3.83;80.22;99347.33;1737244;80;21044;-58
2021/12/17 08:41:40;;;;;;;14.78;9.48;;;;;;;3.78;79.48;99360.54;1739092;82;21012;-56
2021/12/17 08:44:08;;;;;;;23.90;5.53;;;;;;;3.84;80.25;99362.39;1739824;82;21023;-57
2021/12/17 08:46:36;;;;;;;10.50;6.25;;;;;;;3.77;78.40;99368.28;1740758;82;21883;-56
2021/12/17 08:49:04;;;;;;;16.27;6.58;;;;;;;3.88;79.64;99369.02;1764740;79;21833;-57
2021/12/17 08:51:30;;;;;;;15.15;6.08;;;;;;;3.81;78.47;99369.51;1746464;81;21461;-57
2021/12/17 08:53:57;;;;;;;19.25;6.62;;;;;;;3.79;78.90;99374.26;1734745;81;21536;-57
2021/12/17 08:56:30;;;;;;;14.85;6.15;;;;;;;3.68;78.77;99375.16;1742665;81;21096;-56
2021/12/17 08:59:04;;;;;;;15.78;5.60;;;;;;;3.82;78.82;99378.69;1722549;82;21035;-56
2021/12/17 09:01:31;;;;;;;11.97;5.37;;;;;;;3.91;79.26;99372.62;1740405;82;21036;-56
2021/12/17 09:03:58;;;;;;;21.12;6.92;;;;;;;3.88;77.92;99382.42;1736792;82;21441;-56
2021/12/17 09:06:26;;;;;;;26.33;9.40;;;;;;;3.81;77.32;99387.77;1727509;80;21462;-57
2021/12/17 09:08:54;;;;;;;63.13;25.20;;;;;;;3.88;77.87;99388.61;1726749;82;20969;-57
2021/12/17 09:11:22;;;;;;;29.72;12.05;;;;;;;3.94;77.92;99385.64;1721375;82;21041;-57
2021/12/17 09:13:50;;;;;;;27.60;13.27;;;;;;;3.96;77.20;99395.64;1755750;79;20973;-57
2021/12/17 09:16:20;;;;;;;21.48;11.03;;;;;;;4.02;77.97;99392.16;1763956;79;21072;-57
2021/12/17 09:18:47;;;;;;;14.63;7.40;;;;;;;4.06;77.97;99393.38;1737132;82;21115;-58
2021/12/17 09:21:15;;;;;;;21.87;11.73;;;;;;;4.06;77.70;99405.45;1733171;82;21060;-56
2021/12/17 09:23:42;;;;;;;24.87;11.15;;;;;;;4.06;76.53;99406.80;1731839;82;21024;-57
2021/12/17 09:26:14;;;;;;;48.83;21.15;;;;;;;4.00;76.23;99400.89;1747857;81;21440;-57
2021/12/17 09:28:41;;;;;;;20.88;10.58;;;;;;;3.89;75.95;99395.62;1747308;80;21095;-56
2021/12/17 09:31:11;;;;;;;26.73;10.25;;;;;;;3.96;76.78;99392.95;1760334;80;21057;-57
2021/12/17 09:33:38;;;;;;;;;;;;;;;3.95;77.10;99396.16;1752678;81;21540;-57
2021/12/17 09:36:05;;;;;;;22.37;8.13;;;;;;;3.86;77.42;99383.14;1759999;80;21142;-57
2021/12/17 09:38:32;;;;;;;12.30;6.80;;;;;;;3.95;77.82;99388.63;1756610;79;21465;-57
2021/12/17 09:40:59;;;;;;;18.27;5.78;;;;;;;4.01;77.65;99387.79;1760630;80;21179;-57
2021/12/17 09:43:27;;;;;;;16.25;7.78;;;;;;;3.92;76.87;99384.48;1764402;79;20982;-57
2021/12/17 09:45:54;;;;;;;24.43;10.68;;;;;;;3.95;77.36;99384.09;1745805;82;20985;-57
2021/12/17 09:48:20;;;;;;;17.65;8.58;;;;;;;3.90;77.38;99384.37;1765706;79;21091;-57
2021/12/17 09:50:47;;;;;;;16.37;6.87;;;;;;;3.98;77.87;99377.48;1739586;81;21001;-57
2021/12/17 09:53:14;;;;;;;18.75;7.65;;;;;;;4.05;77.90;99378.84;1736378;81;21407;-56
2021/12/17 09:55:41;;;;;;;15.05;7.37;;;;;;;3.99;77.03;99368.41;1741608;80;21452;-56
2021/12/17 09:58:08;;;;;;;11.83;6.90;;;;;;;4.10;77.35;99370.98;1729182;80;21103;-57
2021/12/17 10:00:35;;;;;;;11.63;5.25;;;;;;;3.90;76.28;99375.81;1742542;81;21329;-58
2021/12/17 10:03:02;;;;;;;13.43;6.22;;;;;;;3.94;76.51;99369.55;1740034;81;21036;-58
2021/12/17 10:05:32;;;;;;;26.68;11.12;;;;;;;3.99;77.05;99359.53;1711106;82;21051;-57
2021/12/17 10:08:14;;;;;;;13.55;5.05;;;;;;;4.04;76.88;99356.55;1760317;80;21036;-58
2021/12/17 10:10:45;;;;;;;13.22;5.50;;;;;;;4.01;76.12;99348.08;1753385;79;21066;-57
2021/12/17 10:13:21;;;;;;;12.78;5.08;;;;;;;4.00;75.82;99347.25;1746056;80;20992;-58
2021/12/17 10:15:50;;;;;;;14.68;6.55;;;;;;;4.06;76.50;99344.27;1727113;82;21060;-58
2021/12/17 10:18:18;;;;;;;10.35;5.37;;;;;;;4.11;77.13;99340.47;1734724;81;21201;-57
2021/12/17 10:20:57;;;;;;;18.45;7.08;;;;;;;4.16;77.19;99344.69;1757080;80;21015;-58
2021/12/17 10:23:26;;;;;;;15.68;8.35;;;;;;;4.17;76.32;99344.48;1763129;79;21014;-56
2021/12/17 10:25:53;;;;;;;;;;;;;;;4.25;76.45;99343.45;1758821;80;21694;-57
2021/12/17 10:28:20;;;;;;;10.48;4.80;;;;;;;4.14;75.87;99341.39;1768859;80;20191;-57
2021/12/17 10:30:48;;;;;;;24.77;8.78;;;;;;;4.18;76.48;99335.91;1763978;79;21011;-57
2021/12/17 10:33:23;;;;;;;18.73;6.42;;;;;;;4.19;76.17;99334.91;1763021;80;20965;-57
2021/12/17 10:35:51;;;;;;;17.15;6.50;;;;;;;4.20;75.75;99331.19;1740677;81;21358;-57
2021/12/17 10:38:24;;;;;;;22.42;7.85;;;;;;;4.25;75.96;99334.88;1735521;82;21066;-57
2021/12/17 10:41:08;;;;;;;12.98;5.10;;;;;;;4.29;76.39;99327.78;1735757;81;21091;-57
2021/12/17 10:43:35;;;;;;;13.32;5.83;;;;;;;4.32;76.54;99316.09;1708621;82;21020;-58
2021/12/17 10:46:28;;;;;;;11.00;5.45;;;;;;;4.34;75.93;99319.39;1714974;82;20997;-57
2021/12/17 10:49:02;;;;;;;18.10;7.00;;;;;;;4.37;76.51;99320.34;1751089;80;21033;-57
2021/12/17 10:54:18;;;;;;;17.25;6.50;;;;;;;4.40;76.07;99319.09;1740234;82;20981;-57
2021/12/17 10:56:53;;;;;;;22.00;11.22;;;;;;;4.40;75.94;99311.86;1761475;80;21522;-56
2021/12/17 10:59:26;;;;;;;15.18;6.40;;;;;;;4.47;76.33;99312.69;1748222;80;21603;-57
2021/12/17 11:02:05;;;;;;;14.50;5.42;;;;;;;4.51;76.32;99305.02;1760119;80;21470;-57
2021/12/17 11:04:35;;;;;;;14.55;7.00;;;;;;;4.54;75.70;99307.31;1751067;80;20972;-56
2021/12/17 11:07:17;;;;;;;14.70;5.05;;;;;;;4.56;75.83;99322.68;1770781;80;21068;-58
2021/12/17 11:09:53;;;;;;;17.07;6.25;;;;;;;4.52;76.08;99322.77;1744790;81;21004;-57
2021/12/17 11:12:36;;;;;;;13.35;5.62;;;;;;;4.54;76.05;99305.97;1739248;81;21047;-57
2021/12/17 11:15:24;;;;;;;21.37;7.20;;;;;;;4.36;75.06;99309.30;1746761;81;21431;-57
2021/12/17 11:18:00;;;;;;;22.98;5.95;;;;;;;4.40;75.66;99310.52;1735919;81;21709;-58
2021/12/17 11:20:32;;;;;;;17.30;7.00;;;;;;;4.42;75.51;99309.78;1725354;81;21220;-58
2021/12/17 11:23:06;;;;;;;11.57;5.83;;;;;;;4.38;75.49;99313.94;1721631;80;21066;-57
2021/12/17 11:25:33;;;;;;;13.78;5.95;;;;;;;4.39;75.55;99308.05;1744583;81;20965;-57
2021/12/17 11:28:00;;;;;;;20.70;7.78;;;;;;;4.43;75.93;99310.09;1731629;82;21004;-57
2021/12/17 11:30:31;;;;;;;15.45;6.70;;;;;;;4.46;75.78;99312.38;1737325;82;21311;-57
2021/12/17 11:33:01;;;;;;;16.07;6.65;;;;;;;4.44;75.46;99305.55;1732188;82;21009;-58
2021/12/17 11:35:27;;;;;;;18.60;6.97;;;;;;;4.43;75.66;99304.72;1713498;82;21013;-57
2021/12/17 11:38:02;;;;;;;16.27;7.40;;;;;;;4.41;75.62;99310.00;1710774;82;20988;-57
2021/12/17 11:40:58;;;;;;;15.95;6.35;;;;;;;4.40;75.80;99307.01;1738951;81;20978;-57
2021/12/17 11:43:49;;;;;;;17.32;6.78;;;;;;;4.42;75.12;99301.73;1736687;81;21462;-57
2021/12/17 11:46:12;;;;;;;20.97;9.05;;;;;;;4.32;75.78;99300.00;1737980;82;20978;-57
2021/12/17 11:48:39;;;;;;;12.55;6.20;;;;;;;4.32;75.72;99295.15;1726120;82;22236;-57
2021/12/17 11:51:16;;;;;;;13.38;6.00;;;;;;;4.25;75.44;99291.13;1731280;82;21131;-57
2021/12/17 11:54:05;;;;;;;19.23;6.97;;;;;;;4.20;75.57;99292.28;1738075;82;21413;-57
2021/12/17 11:56:53;;;;;;;14.68;6.00;;;;;;;4.21;75.91;99285.36;1738053;82;21082;-57
2021/12/17 11:59:32;;;;;;;19.77;8.58;;;;;;;4.26;75.04;99291.42;1739017;82;21437;-58
2021/12/17 12:02:08;;;;;;;13.15;6.25;;;;;;;4.22;75.60;99295.05;1731850;81;21473;-57
2021/12/17 12:04:40;;;;;;;12.95;6.87;;;;;;;4.20;75.10;99294.45;1738686;81;21025;-57
2021/12/17 12:07:14;;;;;;;106.65;53.63;;;;;;;4.13;74.69;99290.94;1737920;81;21130;-57
2021/12/17 12:10:00;;;;;;;19.75;9.90;;;;;;;4.18;75.56;99297.83;1737473;82;21005;-58
2021/12/17 12:12:30;;;;;;;32.38;12.58;;;;;;;4.21;75.78;99288.04;1698444;81;20961;-57
2021/12/17 12:15:28;;;;;;;149.20;70.03;;;;;;;4.26;75.83;99294.11;1735797;81;21477;-58
2021/12/17 12:18:06;;;;;;;102.12;42.78;;;;;;;4.23;74.93;99294.53;1762216;81;21410;-57
2021/12/17 12:20:50;;;;;;;68.87;28.25;;;;;;;4.19;75.17;99277.22;1733792;82;20965;-57
2021/12/17 12:23:24;;;;;;;69.37;33.33;;;;;;;4.18;75.26;99280.91;1766597;80;21588;-57
2021/12/17 12:26:14;;;;;;;27.55;16.15;;;;;;;4.18;75.84;99276.88;1766614;81;21082;-57
2021/12/17 12:28:53;;;;;;;55.45;27.00;;;;;;;4.15;75.54;99274.63;1753772;80;21043;-57
2021/12/17 12:31:31;;;;;;;20.17;9.98;;;;;;;4.18;75.58;99267.49;1738677;82;21001;-57
2021/12/17 12:34:06;;;;;;;15.45;6.90;;;;;;;4.00;74.99;99268.13;1740363;81;21048;-57
2021/12/17 12:37:00;;;;;;;17.65;7.45;;;;;;;4.04;75.68;99268.03;1746157;81;21802;-57
2021/12/17 12:39:47;;;;;;;19.20;7.92;;;;;;;4.03;75.75;99270.93;1745172;79;21018;-57
2021/12/17 12:42:18;;;;;;;20.52;7.45;;;;;;;4.06;76.16;99266.48;1734710;82;20985;-57
2021/12/17 12:44:50;;;;;;;13.00;7.00;;;;;;;4.02;75.95;99270.11;1740409;79;21067;-58
2021/12/17 12:47:33;;;;;;;16.42;8.00;;;;;;;4.00;76.02;99273.48;1738660;80;21047;-57
2021/12/17 12:50:11;;;;;;;22.82;9.08;;;;;;;4.07;76.24;99277.52;1734883;81;21115;-57
2021/12/17 12:52:45;;;;;;;14.95;6.30;;;;;;;4.03;76.19;99280.32;1747359;80;21119;-57
2021/12/17 12:55:26;;;;;;;16.42;7.42;;;;;;;3.99;76.26;99283.91;1756370;79;21018;-57
2021/12/17 12:58:13;;;;;;;17.57;8.85;;;;;;;3.90;76.36;99279.79;1729020;81;21025;-57
2021/12/17 13:00:53;;;;;;;68.15;27.42;;;;;;;3.94;76.51;99271.66;1725346;81;21086;-57
2021/12/17 13:03:31;;;;;;;17.15;8.50;;;;;;;3.94;76.74;99281.86;1736835;80;21068;-57
2021/12/17 13:05:59;;;;;;;15.88;7.72;;;;;;;3.86;76.35;99278.56;1738852;81;21043;-57
2021/12/17 13:08:30;;;;;;;19.17;7.55;;;;;;;3.79;76.84;99274.53;1701381;82;21474;-57
2021/12/17 13:10:58;;;;;;;;;;;;;;;3.81;76.92;99275.66;1743169;81;21040;-57
2021/12/17 13:16:18;;;;;;;25.27;9.40;;;;;;;3.58;77.36;99286.24;1728523;80;21494;-56
2021/12/17 13:24:20;;;;;;;22.13;8.25;;;;;;;3.56;77.20;99287.48;1735061;80;21195;-57
2021/12/17 13:26:50;;;;;;;14.85;8.35;;;;;;;3.60;77.50;99291.42;1736572;82;21072;-57
2021/12/17 13:29:21;;;;;;;20.27;8.88;;;;;;;3.59;77.28;99291.09;1730223;80;21054;-57
2021/12/17 13:31:56;;;;;;;19.95;11.35;;;;;;;3.50;77.02;99293.65;1734738;82;21107;-57
2021/12/17 13:34:29;;;;;;;20.88;10.65;;;;;;;3.38;76.88;99298.27;1765778;81;21032;-56
2021/12/17 13:37:16;;;;;;;18.30;9.88;;;;;;;3.38;76.77;99284.87;1753172;81;21067;-57
2021/12/17 13:39:55;;;;;;;21.60;9.93;;;;;;;3.37;76.80;99300.64;1730364;82;21020;-57
2021/12/17 13:42:32;;;;;;;23.98;10.30;;;;;;;3.44;76.77;99297.98;1729884;82;21497;-57
2021/12/17 13:45:01;;;;;;;21.85;9.95;;;;;;;3.50;76.93;99289.11;1762126;80;21097;-57
2021/12/17 13:47:48;;;;;;;20.88;10.08;;;;;;;3.51;76.74;99289.97;1729066;82;21040;-57
2021/12/17 13:50:28;;;;;;;36.15;17.23;;;;;;;3.58;76.86;99292.95;1762384;80;21091;-57
2021/12/17 13:53:05;;;;;;;36.20;22.07;;;;;;;3.53;76.43;99288.73;1753675;80;21076;-57
2021/12/17 13:55:41;;;;;;;61.37;40.40;;;;;;;3.47;76.10;99285.51;1758611;81;21360;-57
2021/12/17 13:58:15;;;;;;;30.37;20.23;;;;;;;3.52;76.38;99283.58;1761979;79;21019;-57
2021/12/17 14:00:53;;;;;;;23.15;11.73;;;;;;;3.48;76.07;99291.17;1739807;80;20968;-56
2021/12/17 14:03:23;;;;;;;25.97;10.32;;;;;;;3.49;76.38;99279.94;1726398;82;21512;-57
2021/12/17 14:05:56;;;;;;;28.15;14.15;;;;;;;3.49;76.11;99287.98;1744560;81;21051;-57
2021/12/17 14:08:20;;;;;;;297.00;98.78;;;;;;;3.39;76.27;99279.82;1741094;81;20986;-57
2021/12/17 14:10:48;;;;;;;101.33;40.38;;;;;;;3.39;76.35;99291.87;1759276;80;21048;-56
2021/12/17 14:13:19;;;;;;;28.65;15.03;;;;;;;3.44;76.57;99277.89;1759180;80;21028;-57
2021/12/17 14:15:46;;;;;;;31.57;16.10;;;;;;;3.46;76.82;99288.40;1754172;80;21032;-57
2021/12/17 14:18:20;;;;;;;39.03;21.02;;;;;;;3.49;76.90;99285.30;1739578;80;21860;-57
2021/12/17 14:20:53;;;;;;;27.87;13.80;;;;;;;3.49;76.99;99287.98;1761214;81;21024;-58
2021/12/17 14:23:24;;;;;;;22.77;12.40;;;;;;;3.46;77.19;99283.86;1737584;82;21509;-58
2021/12/17 14:25:58;;;;;;;42.95;24.00;;;;;;;3.49;77.22;99290.66;1750741;80;21409;-58
2021/12/17 14:28:36;;;;;;;27.98;12.65;;;;;;;3.44;76.93;99279.23;1770321;80;21079;-58
2021/12/17 14:31:15;;;;;;;28.23;12.55;;;;;;;3.52;77.14;99281.72;1740523;82;20992;-57